Time,TemperatureF,DewpointF,PressureIn,WindDirection,WindDirectionDegrees,WindSpeedMPH,WindSpeedGustMPH,Humidity,HourlyPrecipIn,Conditions,Clouds,dailyrainin,SoftwareType,DateUTC
2013-03-09 00:00:00,47.9,40.2,30.06,SSW,203,0.9,1.8,75,0.00,,,0.00,WUHU216HW,2013-03-09 08:00:00,
2013-03-09 00:05:00,47.9,40.6,30.06,ESE,113,2.9,2.9,76,0.00,,,0.00,WUHU216HW,2013-03-09 08:05:00,
2013-03-09 00:10:00,47.9,40.6,30.06,SSE,158,1.8,3.1,76,0.00,,,0.00,WUHU216HW,2013-03-09 08:10:00,
2013-03-09 00:15:00,47.9,40.6,30.07,SSW,203,1.6,3.1,76,0.00,,,0.00,WUHU216HW,2013-03-09 08:15:00,
2013-03-09 00:20:00,47.9,40.2,30.07,SSE,158,0.2,3.1,75,0.00,,,0.00,WUHU216HW,2013-03-09 08:20:00,
2013-03-09 00:25:00,47.9,40.6,30.07,SE,135,1.1,2.7,76,0.00,,,0.00,WUHU216HW,2013-03-09 08:25:00,
2013-03-09 00:31:00,47.7,40.2,30.07,SSE,158,1.1,2.7,75,0.00,,,0.00,WUHU216HW,2013-03-09 08:31:00,
2013-03-09 00:36:00,47.7,40.4,30.07,SSW,203,1.8,3.4,76,0.00,,,0.00,WUHU216HW,2013-03-09 08:36:00,
2013-03-09 00:41:00,47.5,40.0,30.08,East,90,0.4,3.4,75,0.00,,,0.00,WUHU216HW,2013-03-09 08:41:00,
2013-03-09 00:46:00,47.5,40.3,30.08,South,180,0.0,1.8,76,0.00,,,0.00,WUHU216HW,2013-03-09 08:46:00,
2013-03-09 00:51:00,47.3,39.8,30.09,SE,135,0.0,1.3,75,0.00,,,0.00,WUHU216HW,2013-03-09 08:51:00,
2013-03-09 00:56:00,47.2,40.0,30.09,SE,135,0.4,0.4,76,0.00,,,0.00,WUHU216HW,2013-03-09 08:56:00,
2013-03-09 01:01:00,47.2,39.6,30.09,SW,225,0.4,0.4,75,0.00,,,0.00,WUHU216HW,2013-03-09 09:01:00,
2013-03-09 01:06:00,47.0,39.8,30.09,SE,135,0.4,0.4,76,0.00,,,0.00,WUHU216HW,2013-03-09 09:06:00,
2013-03-09 01:11:00,46.8,39.6,30.10,SE,135,0.0,0.4,76,0.00,,,0.00,WUHU216HW,2013-03-09 09:11:00,
2013-03-09 01:16:00,46.6,39.5,30.10,NNE,23,0.4,0.4,76,0.00,,,0.00,WUHU216HW,2013-03-09 09:16:00,
2013-03-09 01:21:00,46.4,39.3,30.11,ENE,68,0.0,0.4,76,0.00,,,0.00,WUHU216HW,2013-03-09 09:21:00,
2013-03-09 01:26:00,46.3,39.5,30.11,NE,45,0.0,0.4,77,0.00,,,0.00,WUHU216HW,2013-03-09 09:26:00,
2013-03-09 01:31:00,46.1,39.3,30.11,SW,225,0.2,0.4,77,0.00,,,0.00,WUHU216HW,2013-03-09 09:31:00,
2013-03-09 01:36:00,45.9,39.2,30.11,SSW,203,0.0,0.4,77,0.00,,,0.00,WUHU216HW,2013-03-09 09:36:00,
2013-03-09 01:41:00,45.9,39.2,30.11,ENE,68,0.0,0.4,77,0.00,,,0.00,WUHU216HW,2013-03-09 09:41:00,
2013-03-09 01:46:00,45.7,39.2,30.11,East,90,0.0,1.1,78,0.00,,,0.00,WUHU216HW,2013-03-09 09:46:00,
2013-03-09 01:51:00,45.7,39.2,30.11,East,90,1.1,1.1,78,0.00,,,0.00,WUHU216HW,2013-03-09 09:51:00,
2013-03-09 01:57:00,45.5,38.8,30.11,South,180,0.4,1.1,77,0.00,,,0.00,WUHU216HW,2013-03-09 09:57:00,
2013-03-09 02:02:00,45.5,38.8,30.11,ESE,113,0.4,0.7,77,0.00,,,0.00,WUHU216HW,2013-03-09 10:02:00,
2013-03-09 02:07:00,45.5,38.8,30.11,SE,135,0.0,0.7,77,0.00,,,0.00,WUHU216HW,2013-03-09 10:07:00,
2013-03-09 02:12:00,45.4,38.6,30.12,East,90,0.2,0.2,77,0.00,,,0.00,WUHU216HW,2013-03-09 10:12:00,
2013-03-09 02:17:00,45.4,38.6,30.12,East,90,0.0,0.2,77,0.00,,,0.00,WUHU216HW,2013-03-09 10:17:00,
2013-03-09 02:22:00,45.2,38.4,30.12,East,90,0.0,0.2,77,0.00,,,0.00,WUHU216HW,2013-03-09 10:22:00,
2013-03-09 02:27:00,45.0,38.5,30.12,East,90,0.0,0.4,78,0.00,,,0.00,WUHU216HW,2013-03-09 10:27:00,
2013-03-09 02:32:00,45.0,38.5,30.12,East,90,0.2,0.4,78,0.00,,,0.00,WUHU216HW,2013-03-09 10:32:00,
2013-03-09 02:37:00,45.0,38.5,30.12,East,90,0.0,0.4,78,0.00,,,0.00,WUHU216HW,2013-03-09 10:37:00,
2013-03-09 02:42:00,44.8,38.3,30.13,NE,45,0.2,0.2,78,0.00,,,0.00,WUHU216HW,2013-03-09 10:42:00,
2013-03-09 02:47:00,44.8,38.3,30.13,NNE,23,0.0,0.2,78,0.00,,,0.00,WUHU216HW,2013-03-09 10:47:00,
2013-03-09 02:52:00,44.8,38.3,30.13,NE,45,0.0,0.0,78,0.00,,,0.00,WUHU216HW,2013-03-09 10:52:00,
2013-03-09 02:57:00,44.6,38.5,30.13,ENE,68,0.0,0.0,79,0.00,,,0.00,WUHU216HW,2013-03-09 10:57:00,
2013-03-09 03:02:00,44.6,38.5,30.13,East,90,0.0,0.4,79,0.00,,,0.00,WUHU216HW,2013-03-09 11:02:00,
2013-03-09 03:07:00,44.6,38.5,30.13,East,90,0.0,0.4,79,0.00,,,0.00,WUHU216HW,2013-03-09 11:07:00,
2013-03-09 03:13:00,44.5,38.3,30.13,ENE,68,0.0,0.2,79,0.00,,,0.00,WUHU216HW,2013-03-09 11:13:00,
2013-03-09 03:18:00,44.3,38.2,30.13,ENE,68,0.0,0.2,79,0.00,,,0.00,WUHU216HW,2013-03-09 11:18:00,
2013-03-09 03:23:00,44.3,38.2,30.13,East,90,0.0,0.2,79,0.00,,,0.00,WUHU216HW,2013-03-09 11:23:00,
2013-03-09 03:28:00,44.3,38.2,30.13,NNW,338,0.0,0.4,79,0.00,,,0.00,WUHU216HW,2013-03-09 11:28:00,
2013-03-09 03:33:00,44.3,38.5,30.14,NE,45,1.1,1.1,80,0.00,,,0.00,WUHU216HW,2013-03-09 11:33:00,
2013-03-09 03:38:00,44.1,38.3,30.14,NE,45,0.0,1.1,80,0.00,,,0.00,WUHU216HW,2013-03-09 11:38:00,
2013-03-09 03:43:00,44.1,38.3,30.15,North,0,0.0,0.2,80,0.00,,,0.00,WUHU216HW,2013-03-09 11:43:00,
2013-03-09 03:48:00,43.9,38.2,30.15,ESE,113,0.4,0.4,80,0.00,,,0.00,WUHU216HW,2013-03-09 11:48:00,
2013-03-09 03:53:00,43.9,38.2,30.15,SSE,158,0.0,0.4,80,0.00,,,0.00,WUHU216HW,2013-03-09 11:53:00,
2013-03-09 03:58:00,43.9,38.2,30.15,SSE,158,0.0,0.4,80,0.00,,,0.00,WUHU216HW,2013-03-09 11:58:00,
2013-03-09 04:03:00,43.7,38.0,30.16,SSW,203,0.0,0.4,80,0.00,,,0.00,WUHU216HW,2013-03-09 12:03:00,
2013-03-09 04:09:00,43.6,37.8,30.16,ESE,113,0.4,0.4,80,0.00,,,0.00,WUHU216HW,2013-03-09 12:09:00,
2013-03-09 04:14:00,43.6,38.1,30.16,ESE,113,0.0,0.4,81,0.00,,,0.00,WUHU216HW,2013-03-09 12:14:00,
2013-03-09 04:19:00,43.6,38.1,30.16,NE,45,0.0,0.0,81,0.00,,,0.00,WUHU216HW,2013-03-09 12:19:00,
2013-03-09 04:24:00,43.6,38.1,30.16,NNE,23,0.0,0.0,81,0.00,,,0.00,WUHU216HW,2013-03-09 12:24:00,
2013-03-09 04:29:00,43.4,37.9,30.17,NNW,338,0.2,0.2,81,0.00,,,0.00,WUHU216HW,2013-03-09 12:29:00,
2013-03-09 04:34:00,43.4,37.9,30.17,NNW,338,0.0,0.2,81,0.00,,,0.00,WUHU216HW,2013-03-09 12:34:00,
2013-03-09 04:39:00,43.4,37.9,30.18,NNW,338,0.0,0.2,81,0.00,,,0.00,WUHU216HW,2013-03-09 12:39:00,
2013-03-09 04:44:00,43.2,37.7,30.18,NNW,338,0.0,0.0,81,0.00,,,0.00,WUHU216HW,2013-03-09 12:44:00,
2013-03-09 04:49:00,43.0,37.5,30.18,NNW,338,0.0,0.0,81,0.00,,,0.00,WUHU216HW,2013-03-09 12:49:00,
2013-03-09 04:54:00,42.8,37.4,30.18,NNW,338,0.0,0.0,81,0.00,,,0.00,WUHU216HW,2013-03-09 12:54:00,
2013-03-09 04:59:00,42.7,37.2,30.18,NNW,338,0.0,0.0,81,0.00,,,0.00,WUHU216HW,2013-03-09 12:59:00,
2013-03-09 05:04:00,42.7,37.2,30.18,NNW,338,0.0,0.0,81,0.00,,,0.00,WUHU216HW,2013-03-09 13:04:00,
2013-03-09 05:10:00,42.5,37.0,30.18,NNW,338,0.0,0.0,81,0.00,,,0.00,WUHU216HW,2013-03-09 13:10:00,
2013-03-09 05:15:00,42.5,37.0,30.18,NNW,338,0.0,0.0,81,0.00,,,0.00,WUHU216HW,2013-03-09 13:15:00,
2013-03-09 05:20:00,42.3,36.8,30.18,NNW,338,0.0,0.0,81,0.00,,,0.00,WUHU216HW,2013-03-09 13:20:00,
2013-03-09 05:25:00,42.1,36.6,30.18,NNW,338,0.0,0.0,81,0.00,,,0.00,WUHU216HW,2013-03-09 13:25:00,
2013-03-09 05:30:00,42.1,37.0,30.18,NNW,338,0.0,0.0,82,0.00,,,0.00,WUHU216HW,2013-03-09 13:30:00,
2013-03-09 05:35:00,41.9,36.8,30.19,NNW,338,0.0,0.0,82,0.00,,,0.00,WUHU216HW,2013-03-09 13:35:00,
2013-03-09 05:40:00,41.9,36.8,30.19,NNW,338,0.0,0.0,82,0.00,,,0.00,WUHU216HW,2013-03-09 13:40:00,
2013-03-09 05:45:00,41.8,36.6,30.19,NNW,338,0.0,0.0,82,0.00,,,0.00,WUHU216HW,2013-03-09 13:45:00,
2013-03-09 05:50:00,41.8,36.6,30.19,NNW,338,0.0,0.0,82,0.00,,,0.00,WUHU216HW,2013-03-09 13:50:00,
2013-03-09 05:55:00,41.6,36.5,30.20,NNW,338,0.0,0.0,82,0.00,,,0.00,WUHU216HW,2013-03-09 13:55:00,
2013-03-09 06:01:00,41.6,36.5,30.20,NNW,338,0.0,0.0,82,0.00,,,0.00,WUHU216HW,2013-03-09 14:01:00,
2013-03-09 06:06:00,41.4,36.3,30.21,NNW,338,0.0,0.0,82,0.00,,,0.00,WUHU216HW,2013-03-09 14:06:00,
2013-03-09 06:11:00,41.4,36.3,30.21,NNW,338,0.0,0.0,82,0.00,,,0.00,WUHU216HW,2013-03-09 14:11:00,
2013-03-09 06:16:00,41.4,36.5,30.21,NNW,338,0.0,0.0,83,0.00,,,0.00,WUHU216HW,2013-03-09 14:16:00,
2013-03-09 06:21:00,41.4,36.5,30.22,NNW,338,0.0,0.0,83,0.00,,,0.00,WUHU216HW,2013-03-09 14:21:00,
2013-03-09 06:26:00,41.2,36.4,30.22,NNW,338,0.0,0.0,83,0.00,,,0.00,WUHU216HW,2013-03-09 14:26:00,
2013-03-09 06:31:00,41.0,36.2,30.22,NNW,338,0.0,0.0,83,0.00,,,0.00,WUHU216HW,2013-03-09 14:31:00,
2013-03-09 06:36:00,41.2,36.4,30.23,NNW,338,0.0,0.0,83,0.00,,,0.00,WUHU216HW,2013-03-09 14:36:00,
2013-03-09 06:41:00,41.0,35.9,30.23,NNW,338,0.0,0.0,82,0.00,,,0.00,WUHU216HW,2013-03-09 14:41:00,
2013-03-09 06:47:00,41.2,36.1,30.23,NNW,338,0.0,0.0,82,0.00,,,0.00,WUHU216HW,2013-03-09 14:47:00,
2013-03-09 06:52:00,41.2,36.1,30.23,NNW,338,0.0,0.0,82,0.00,,,0.00,WUHU216HW,2013-03-09 14:52:00,
2013-03-09 06:57:00,41.2,36.1,30.24,NNW,338,0.0,0.0,82,0.00,,,0.00,WUHU216HW,2013-03-09 14:57:00,
2013-03-09 07:02:00,41.4,36.3,30.24,West,270,0.0,0.0,82,0.00,,,0.00,WUHU216HW,2013-03-09 15:02:00,
2013-03-09 07:07:00,41.6,36.7,30.24,NW,315,0.0,0.0,83,0.00,,,0.00,WUHU216HW,2013-03-09 15:07:00,
2013-03-09 07:12:00,41.8,37.3,30.24,NNE,23,0.0,0.0,84,0.00,,,0.00,WUHU216HW,2013-03-09 15:12:00,
2013-03-09 07:17:00,42.1,37.6,30.24,WNW,293,0.0,0.0,84,0.00,,,0.00,WUHU216HW,2013-03-09 15:17:00,
2013-03-09 07:22:00,42.3,38.1,30.25,NW,315,1.1,1.1,85,0.00,,,0.00,WUHU216HW,2013-03-09 15:22:00,
2013-03-09 07:27:00,43.0,38.8,30.25,NW,315,0.0,1.1,85,0.00,,,0.00,WUHU216HW,2013-03-09 15:27:00,
2013-03-09 07:32:00,43.6,39.6,30.26,NW,315,0.0,1.1,86,0.00,,,0.00,WUHU216HW,2013-03-09 15:32:00,
2013-03-09 07:37:00,44.3,40.1,30.26,WNW,293,0.0,0.4,85,0.00,,,0.00,WUHU216HW,2013-03-09 15:37:00,
2013-03-09 07:42:00,44.5,40.2,30.26,NW,315,2.5,2.5,85,0.00,,,0.00,WUHU216HW,2013-03-09 15:42:00,
2013-03-09 07:47:00,44.8,40.3,30.26,NW,315,0.9,2.5,84,0.00,,,0.00,WUHU216HW,2013-03-09 15:47:00,
2013-03-09 07:52:00,45.0,40.5,30.26,WNW,293,2.0,2.0,84,0.00,,,0.00,WUHU216HW,2013-03-09 15:52:00,
2013-03-09 07:57:00,45.2,40.3,30.27,NNW,338,0.4,2.0,83,0.00,,,0.00,WUHU216HW,2013-03-09 15:57:00,
2013-03-09 08:03:00,45.4,40.5,30.27,NW,315,1.1,2.5,83,0.00,,,0.00,WUHU216HW,2013-03-09 16:03:00,
2013-03-09 08:08:00,45.4,40.5,30.27,NNW,338,0.4,2.5,83,0.00,,,0.00,WUHU216HW,2013-03-09 16:08:00,
2013-03-09 08:13:00,45.7,40.9,30.27,NNW,338,0.4,1.1,83,0.00,,,0.00,WUHU216HW,2013-03-09 16:13:00,
2013-03-09 08:18:00,45.9,40.8,30.27,WNW,293,0.9,2.9,82,0.00,,,0.00,WUHU216HW,2013-03-09 16:18:00,
2013-03-09 08:23:00,46.3,41.1,30.28,NW,315,2.0,3.4,82,0.00,,,0.00,WUHU216HW,2013-03-09 16:23:00,
2013-03-09 08:28:00,46.6,41.5,30.28,North,0,1.3,4.0,82,0.00,,,0.00,WUHU216HW,2013-03-09 16:28:00,
2013-03-09 08:33:00,47.2,41.9,30.28,NW,315,0.9,4.0,82,0.00,,,0.00,WUHU216HW,2013-03-09 16:33:00,
2013-03-09 08:38:00,47.3,41.8,30.29,West,270,1.6,3.6,81,0.00,,,0.00,WUHU216HW,2013-03-09 16:38:00,
2013-03-09 08:43:00,47.9,42.3,30.29,WNW,293,1.6,1.8,81,0.00,,,0.00,WUHU216HW,2013-03-09 16:43:00,
2013-03-09 08:48:00,48.2,42.7,30.29,NE,45,1.6,2.2,81,0.00,,,0.00,WUHU216HW,2013-03-09 16:48:00,
2013-03-09 08:53:00,48.6,43.0,30.29,WNW,293,0.7,2.2,81,0.00,,,0.00,WUHU216HW,2013-03-09 16:53:00,
2013-03-09 08:59:00,49.0,43.0,30.30,WNW,293,0.7,2.5,80,0.00,,,0.00,WUHU216HW,2013-03-09 16:59:00,
2013-03-09 09:04:00,49.3,43.0,30.30,North,0,0.0,2.5,79,0.00,,,0.00,WUHU216HW,2013-03-09 17:04:00,
2013-03-09 09:09:00,49.7,43.4,30.29,SSE,158,0.4,4.0,79,0.00,,,0.00,WUHU216HW,2013-03-09 17:09:00,
2013-03-09 09:14:00,50.0,43.4,30.30,NW,315,2.2,4.0,78,0.00,,,0.00,WUHU216HW,2013-03-09 17:14:00,
2013-03-09 09:19:00,50.4,43.7,30.30,ENE,68,2.2,4.0,78,0.00,,,0.00,WUHU216HW,2013-03-09 17:19:00,
2013-03-09 09:24:00,50.8,44.1,30.30,NW,315,2.2,4.0,78,0.00,,,0.00,WUHU216HW,2013-03-09 17:24:00,
2013-03-09 09:29:00,51.3,44.4,30.30,East,90,2.2,3.4,77,0.00,,,0.00,WUHU216HW,2013-03-09 17:29:00,
2013-03-09 09:34:00,51.7,44.4,30.30,NW,315,1.8,3.4,76,0.00,,,0.00,WUHU216HW,2013-03-09 17:34:00,
2013-03-09 09:39:00,52.2,44.6,30.30,NE,45,1.8,3.4,75,0.00,,,0.00,WUHU216HW,2013-03-09 17:39:00,
2013-03-09 09:44:00,52.7,44.7,30.30,NE,45,0.9,3.4,74,0.00,,,0.00,WUHU216HW,2013-03-09 17:44:00,
2013-03-09 09:49:00,53.3,45.2,30.30,NW,315,4.5,4.5,74,0.00,,,0.00,WUHU216HW,2013-03-09 17:49:00,
2013-03-09 09:54:00,53.6,45.5,30.30,NNW,338,1.8,4.7,74,0.00,,,0.00,WUHU216HW,2013-03-09 17:54:00,
2013-03-09 10:00:00,53.8,45.4,30.30,NNE,23,1.6,4.7,73,0.00,,,0.00,WUHU216HW,2013-03-09 18:00:00,
2013-03-09 10:05:00,54.4,45.6,30.30,NNW,338,1.8,2.5,72,0.00,,,0.00,WUHU216HW,2013-03-09 18:05:00,
2013-03-09 10:10:00,54.7,45.6,30.30,North,0,1.3,3.1,71,0.00,,,0.00,WUHU216HW,2013-03-09 18:10:00,
2013-03-09 10:15:00,55.1,45.9,30.30,NNW,338,0.4,4.5,71,0.00,,,0.00,WUHU216HW,2013-03-09 18:15:00,
2013-03-09 10:20:00,55.3,45.7,30.29,NNW,338,2.7,4.5,70,0.00,,,0.00,WUHU216HW,2013-03-09 18:20:00,
2013-03-09 10:25:00,55.8,46.3,30.30,WNW,293,2.7,5.1,70,0.00,,,0.00,WUHU216HW,2013-03-09 18:25:00,
2013-03-09 10:30:00,55.8,45.8,30.29,ENE,68,2.9,5.1,69,0.00,,,0.00,WUHU216HW,2013-03-09 18:30:00,
2013-03-09 10:35:00,56.2,46.2,30.29,NW,315,0.4,4.0,69,0.00,,,0.00,WUHU216HW,2013-03-09 18:35:00,
2013-03-09 10:40:00,56.9,46.8,30.29,NW,315,1.8,3.1,69,0.00,,,0.00,WUHU216HW,2013-03-09 18:40:00,
2013-03-09 10:45:00,57.2,45.9,30.29,SSW,203,2.9,3.4,66,0.00,,,0.00,WUHU216HW,2013-03-09 18:45:00,
2013-03-09 10:50:00,57.6,46.7,30.29,West,270,1.1,3.4,67,0.00,,,0.00,WUHU216HW,2013-03-09 18:50:00,
2013-03-09 10:55:00,58.0,46.3,30.29,SW,225,3.8,3.8,65,0.00,,,0.00,WUHU216HW,2013-03-09 18:55:00,
2013-03-09 11:00:00,58.0,46.3,30.30,NW,315,2.5,4.9,65,0.00,,,0.00,WUHU216HW,2013-03-09 19:00:00,
2013-03-09 11:06:00,58.3,46.2,30.30,NW,315,2.5,4.9,64,0.00,,,0.00,WUHU216HW,2013-03-09 19:06:00,
2013-03-09 11:11:00,58.7,46.5,30.30,NNW,338,4.3,4.9,64,0.00,,,0.00,WUHU216HW,2013-03-09 19:11:00,
2013-03-09 11:16:00,59.0,46.5,30.29,NW,315,3.4,5.1,63,0.00,,,0.00,WUHU216HW,2013-03-09 19:16:00,
2013-03-09 11:21:00,59.2,46.2,30.29,WNW,293,4.3,6.9,62,0.00,,,0.00,WUHU216HW,2013-03-09 19:21:00,
2013-03-09 11:26:00,59.6,46.5,30.29,NW,315,2.0,6.9,62,0.00,,,0.00,WUHU216HW,2013-03-09 19:26:00,
2013-03-09 11:31:00,59.9,46.1,30.29,NNE,23,1.6,6.9,60,0.00,,,0.00,WUHU216HW,2013-03-09 19:31:00,
2013-03-09 11:36:00,60.3,45.5,30.29,NW,315,7.8,7.8,58,0.00,,,0.00,WUHU216HW,2013-03-09 19:36:00,
2013-03-09 11:41:00,60.5,45.6,30.29,NNW,338,2.5,7.8,58,0.00,,,0.00,WUHU216HW,2013-03-09 19:41:00,
2013-03-09 11:46:00,60.8,45.6,30.29,NNW,338,3.4,6.7,57,0.00,,,0.00,WUHU216HW,2013-03-09 19:46:00,
2013-03-09 11:51:00,61.2,45.8,30.29,North,0,2.5,4.7,57,0.00,,,0.00,WUHU216HW,2013-03-09 19:51:00,
2013-03-09 11:56:00,61.7,45.4,30.29,WNW,293,2.5,6.9,55,0.00,,,0.00,WUHU216HW,2013-03-09 19:56:00,
2013-03-09 12:01:00,61.9,45.0,30.29,West,270,4.3,6.9,54,0.00,,,0.00,WUHU216HW,2013-03-09 20:01:00,
2013-03-09 12:06:00,62.1,44.2,30.29,WSW,248,2.0,7.6,52,0.00,,,0.00,WUHU216HW,2013-03-09 20:06:00,
2013-03-09 12:11:00,62.5,44.1,30.29,NW,315,4.0,7.6,51,0.00,,,0.00,WUHU216HW,2013-03-09 20:11:00,
2013-03-09 12:16:00,63.0,44.6,30.29,NW,315,3.8,4.3,51,0.00,,,0.00,WUHU216HW,2013-03-09 20:16:00,
2013-03-09 12:21:00,63.4,43.8,30.29,ENE,68,4.5,4.5,49,0.00,,,0.00,WUHU216HW,2013-03-09 20:21:00,
2013-03-09 12:26:00,63.7,44.7,30.29,ENE,68,1.6,9.4,50,0.00,,,0.00,WUHU216HW,2013-03-09 20:26:00,
2013-03-09 12:32:00,63.9,44.3,30.29,NW,315,3.4,9.4,49,0.00,,,0.00,WUHU216HW,2013-03-09 20:32:00,
2013-03-09 12:36:00,64.1,43.9,30.29,NE,45,1.8,5.4,48,0.00,,,0.00,WUHU216HW,2013-03-09 20:36:00,
2013-03-09 12:41:00,64.4,40.8,30.29,NNW,338,7.4,9.8,42,0.00,,,0.00,WUHU216HW,2013-03-09 20:41:00,
2013-03-09 12:47:00,64.3,40.1,30.29,WNW,293,5.8,10.5,41,0.00,,,0.00,WUHU216HW,2013-03-09 20:47:00,
2013-03-09 12:52:00,64.3,40.6,30.28,ENE,68,3.4,10.5,42,0.00,,,0.00,WUHU216HW,2013-03-09 20:52:00,
2013-03-09 12:57:00,64.4,38.9,30.28,West,270,5.4,9.8,39,0.00,,,0.00,WUHU216HW,2013-03-09 20:57:00,
2013-03-09 13:02:00,64.8,40.0,30.28,North,0,4.0,9.2,40,0.00,,,0.00,WUHU216HW,2013-03-09 21:02:00,
2013-03-09 13:07:00,65.2,40.2,30.28,ESE,113,2.5,9.2,40,0.00,,,0.00,WUHU216HW,2013-03-09 21:07:00,
2013-03-09 13:12:00,65.5,39.9,30.28,WNW,293,2.7,6.7,39,0.00,,,0.00,WUHU216HW,2013-03-09 21:12:00,
2013-03-09 13:17:00,65.7,38.6,30.28,North,0,4.0,7.8,37,0.00,,,0.00,WUHU216HW,2013-03-09 21:17:00,
2013-03-09 13:22:00,65.9,38.0,30.28,NNW,338,6.9,7.8,36,0.00,,,0.00,WUHU216HW,2013-03-09 21:22:00,
2013-03-09 13:27:00,66.1,37.4,30.27,NW,315,2.9,7.2,35,0.00,,,0.00,WUHU216HW,2013-03-09 21:27:00,
2013-03-09 13:32:00,66.2,39.8,30.27,WNW,293,2.5,4.7,38,0.00,,,0.00,WUHU216HW,2013-03-09 21:32:00,
2013-03-09 13:37:00,66.4,39.3,30.27,NNW,338,1.8,7.4,37,0.00,,,0.00,WUHU216HW,2013-03-09 21:37:00,
2013-03-09 13:42:00,66.8,39.5,30.27,WNW,293,1.8,7.6,37,0.00,,,0.00,WUHU216HW,2013-03-09 21:42:00,
2013-03-09 13:47:00,67.0,39.0,30.27,WNW,293,3.1,7.6,36,0.00,,,0.00,WUHU216HW,2013-03-09 21:47:00,
2013-03-09 13:52:00,67.1,38.4,30.27,WSW,248,3.4,5.8,35,0.00,,,0.00,WUHU216HW,2013-03-09 21:52:00,
2013-03-09 13:57:00,67.1,37.6,30.27,North,0,4.0,5.1,34,0.00,,,0.00,WUHU216HW,2013-03-09 21:57:00,
2013-03-09 14:02:00,67.3,37.8,30.27,WNW,293,6.9,7.2,34,0.00,,,0.00,WUHU216HW,2013-03-09 22:02:00,
2013-03-09 14:07:00,67.3,37.1,30.27,NW,315,2.2,7.2,33,0.00,,,0.00,WUHU216HW,2013-03-09 22:07:00,
2013-03-09 14:13:00,67.3,37.8,30.27,NNE,23,3.8,6.7,34,0.00,,,0.00,WUHU216HW,2013-03-09 22:13:00,
2013-03-09 14:18:00,67.7,38.1,30.27,NE,45,4.0,6.7,34,0.00,,,0.00,WUHU216HW,2013-03-09 22:18:00,
2013-03-09 14:23:00,67.5,36.5,30.27,NNE,23,5.6,5.8,32,0.00,,,0.00,WUHU216HW,2013-03-09 22:23:00,
2013-03-09 14:28:00,67.7,36.6,30.27,WNW,293,2.5,5.6,32,0.00,,,0.00,WUHU216HW,2013-03-09 22:28:00,
2013-03-09 14:33:00,67.7,36.6,30.27,NW,315,5.8,5.8,32,0.00,,,0.00,WUHU216HW,2013-03-09 22:33:00,
2013-03-09 14:38:00,67.7,35.9,30.26,WNW,293,3.4,6.3,31,0.00,,,0.00,WUHU216HW,2013-03-09 22:38:00,
2013-03-09 14:43:00,68.0,36.2,30.26,NNW,338,2.7,5.6,31,0.00,,,0.00,WUHU216HW,2013-03-09 22:43:00,
2013-03-09 14:48:00,68.2,35.7,30.26,WNW,293,4.0,6.7,30,0.00,,,0.00,WUHU216HW,2013-03-09 22:48:00,
2013-03-09 14:53:00,68.4,36.6,30.26,NNE,23,4.0,6.7,31,0.00,,,0.00,WUHU216HW,2013-03-09 22:53:00,
2013-03-09 14:58:00,68.2,36.4,30.27,North,0,4.5,8.9,31,0.00,,,0.00,WUHU216HW,2013-03-09 22:58:00,
2013-03-09 15:03:00,68.2,37.1,30.26,WNW,293,1.6,8.9,32,0.00,,,0.00,WUHU216HW,2013-03-09 23:03:00,
2013-03-09 15:08:00,68.2,36.4,30.26,North,0,1.3,4.5,31,0.00,,,0.00,WUHU216HW,2013-03-09 23:08:00,
2013-03-09 15:13:00,68.4,36.6,30.26,NNW,338,2.5,6.0,31,0.00,,,0.00,WUHU216HW,2013-03-09 23:13:00,
2013-03-09 15:18:00,68.6,37.5,30.26,NNE,23,3.8,6.0,32,0.00,,,0.00,WUHU216HW,2013-03-09 23:18:00,
2013-03-09 15:23:00,68.4,36.6,30.26,West,270,6.0,6.0,31,0.00,,,0.00,WUHU216HW,2013-03-09 23:23:00,
2013-03-09 15:28:00,68.2,34.7,30.26,NW,315,4.5,6.0,29,0.00,,,0.00,WUHU216HW,2013-03-09 23:28:00,
2013-03-09 15:34:00,68.2,35.7,30.26,WSW,248,2.5,5.8,30,0.00,,,0.00,WUHU216HW,2013-03-09 23:34:00,
2013-03-09 15:39:00,68.2,33.7,30.26,NNW,338,6.7,8.1,28,0.00,,,0.00,WUHU216HW,2013-03-09 23:39:00,
2013-03-09 15:44:00,68.4,35.8,30.26,NNW,338,1.6,8.1,30,0.00,,,0.00,WUHU216HW,2013-03-09 23:44:00,
2013-03-09 15:49:00,68.6,34.9,30.26,NW,315,5.8,6.3,29,0.00,,,0.00,WUHU216HW,2013-03-09 23:49:00,
2013-03-09 15:54:00,68.4,34.8,30.26,NW,315,4.7,8.5,29,0.00,,,0.00,WUHU216HW,2013-03-09 23:54:00,
2013-03-09 15:59:00,68.2,34.7,30.26,NW,315,2.5,8.5,29,0.00,,,0.00,WUHU216HW,2013-03-09 23:59:00,
2013-03-09 16:04:00,68.2,35.7,30.26,North,0,2.5,7.6,30,0.00,,,0.00,WUHU216HW,2013-03-10 00:04:00,
2013-03-09 16:09:00,68.4,35.8,30.26,NNW,338,6.3,6.9,30,0.00,,,0.00,WUHU216HW,2013-03-10 00:09:00,
2013-03-09 16:14:00,68.2,34.7,30.26,NW,315,5.1,7.6,29,0.00,,,0.00,WUHU216HW,2013-03-10 00:14:00,
2013-03-09 16:19:00,68.2,35.7,30.26,NW,315,4.5,7.6,30,0.00,,,0.00,WUHU216HW,2013-03-10 00:19:00,
2013-03-09 16:24:00,68.0,35.5,30.26,NW,315,3.4,6.3,30,0.00,,,0.00,WUHU216HW,2013-03-10 00:24:00,
2013-03-09 16:29:00,68.0,34.5,30.26,North,0,3.8,4.3,29,0.00,,,0.00,WUHU216HW,2013-03-10 00:29:00,
2013-03-09 16:34:00,68.0,34.5,30.26,West,270,4.0,6.3,29,0.00,,,0.00,WUHU216HW,2013-03-10 00:34:00,
2013-03-09 16:39:00,67.7,34.2,30.26,NW,315,4.5,6.3,29,0.00,,,0.00,WUHU216HW,2013-03-10 00:39:00,
2013-03-09 16:44:00,67.5,34.0,30.26,WNW,293,8.9,8.9,29,0.00,,,0.00,WUHU216HW,2013-03-10 00:44:00,
2013-03-09 16:49:00,67.5,35.7,30.26,NW,315,1.8,8.9,31,0.00,,,0.00,WUHU216HW,2013-03-10 00:49:00,
2013-03-09 16:55:00,67.3,35.7,30.26,NNW,338,2.7,7.8,31,0.00,,,0.00,WUHU216HW,2013-03-10 00:55:00,
2013-03-09 17:00:00,67.3,35.7,30.26,NNE,23,5.6,6.3,31,0.00,,,0.00,WUHU216HW,2013-03-10 01:00:00,
2013-03-09 17:05:00,67.1,34.7,30.26,NW,315,3.6,6.3,30,0.00,,,0.00,WUHU216HW,2013-03-10 01:05:00,
2013-03-09 17:10:00,67.1,34.7,30.26,SSW,203,1.8,5.6,30,0.00,,,0.00,WUHU216HW,2013-03-10 01:10:00,
2013-03-09 17:15:00,67.0,34.6,30.27,NW,315,2.7,5.6,30,0.00,,,0.00,WUHU216HW,2013-03-10 01:15:00,
2013-03-09 17:20:00,66.8,34.5,30.27,NNE,23,0.9,6.0,30,0.00,,,0.00,WUHU216HW,2013-03-10 01:20:00,
2013-03-09 17:25:00,66.6,35.7,30.27,WNW,293,1.8,6.0,32,0.00,,,0.00,WUHU216HW,2013-03-10 01:25:00,
2013-03-09 17:30:00,66.4,35.7,30.27,NNW,338,2.0,4.7,32,0.00,,,0.00,WUHU216HW,2013-03-10 01:30:00,
2013-03-09 17:35:00,66.2,35.5,30.27,WNW,293,1.6,3.6,32,0.00,,,0.00,WUHU216HW,2013-03-10 01:35:00,
2013-03-09 17:40:00,66.1,35.3,30.27,NE,45,1.1,4.0,32,0.00,,,0.00,WUHU216HW,2013-03-10 01:40:00,
2013-03-09 17:45:00,65.7,35.7,30.27,NW,315,2.7,4.3,33,0.00,,,0.00,WUHU216HW,2013-03-10 01:45:00,
2013-03-09 17:50:00,65.5,34.8,30.27,North,0,1.8,4.3,32,0.00,,,0.00,WUHU216HW,2013-03-10 01:50:00,
2013-03-09 17:56:00,65.2,34.5,30.28,NNE,23,1.8,3.8,32,0.00,,,0.00,WUHU216HW,2013-03-10 01:56:00,
2013-03-09 18:01:00,64.8,34.2,30.28,NNW,338,1.8,2.5,32,0.00,,,0.00,WUHU216HW,2013-03-10 02:01:00,
2013-03-09 18:06:00,64.4,34.6,30.28,NNW,338,0.9,2.7,33,0.00,,,0.00,WUHU216HW,2013-03-10 02:06:00,
2013-03-09 18:11:00,64.3,34.4,30.28,NW,315,0.7,2.7,33,0.00,,,0.00,WUHU216HW,2013-03-10 02:11:00,
2013-03-09 18:16:00,63.7,33.9,30.28,WNW,293,1.1,2.2,33,0.00,,,0.00,WUHU216HW,2013-03-10 02:16:00,
2013-03-09 18:21:00,63.5,34.5,30.28,NNW,338,0.4,2.2,34,0.00,,,0.00,WUHU216HW,2013-03-10 02:21:00,
2013-03-09 18:26:00,63.2,34.1,30.29,North,0,0.4,2.5,34,0.00,,,0.00,WUHU216HW,2013-03-10 02:26:00,
2013-03-09 18:31:00,63.0,34.0,30.29,NNW,338,0.7,2.5,34,0.00,,,0.00,WUHU216HW,2013-03-10 02:31:00,
2013-03-09 18:36:00,62.6,33.7,30.29,NW,315,0.4,2.2,34,0.00,,,0.00,WUHU216HW,2013-03-10 02:36:00,
2013-03-09 18:41:00,62.3,33.3,30.29,NW,315,0.2,2.0,34,0.00,,,0.00,WUHU216HW,2013-03-10 02:41:00,
2013-03-09 18:46:00,61.9,33.8,30.29,NW,315,0.2,1.6,35,0.00,,,0.00,WUHU216HW,2013-03-10 02:46:00,
2013-03-09 18:51:00,61.6,33.4,30.29,North,0,0.4,1.6,35,0.00,,,0.00,WUHU216HW,2013-03-10 02:51:00,
2013-03-09 18:56:00,61.4,33.9,30.29,North,0,0.0,1.1,36,0.00,,,0.00,WUHU216HW,2013-03-10 02:56:00,
2013-03-09 19:01:00,61.0,33.7,30.29,NNW,338,0.4,1.1,36,0.00,,,0.00,WUHU216HW,2013-03-10 03:01:00,
2013-03-09 19:06:00,60.7,33.3,30.29,NNW,338,0.0,0.9,36,0.00,,,0.00,WUHU216HW,2013-03-10 03:06:00,
2013-03-09 19:12:00,60.5,33.9,30.29,NNW,338,0.2,0.9,37,0.00,,,0.00,WUHU216HW,2013-03-10 03:12:00,
2013-03-09 19:17:00,60.1,33.6,30.29,NNW,338,0.4,0.9,37,0.00,,,0.00,WUHU216HW,2013-03-10 03:17:00,
2013-03-09 19:22:00,60.1,33.6,30.29,NNW,338,0.2,1.1,37,0.00,,,0.00,WUHU216HW,2013-03-10 03:22:00,
2013-03-09 19:27:00,59.9,33.4,30.29,NNW,338,0.2,1.1,37,0.00,,,0.00,WUHU216HW,2013-03-10 03:27:00,
2013-03-09 19:32:00,59.8,33.3,30.30,North,0,0.0,1.1,37,0.00,,,0.00,WUHU216HW,2013-03-10 03:32:00,
2013-03-09 19:37:00,59.6,33.9,30.29,WNW,293,0.2,0.7,38,0.00,,,0.00,WUHU216HW,2013-03-10 03:37:00,
2013-03-09 19:42:00,59.4,33.7,30.30,NNE,23,1.1,1.1,38,0.00,,,0.00,WUHU216HW,2013-03-10 03:42:00,
2013-03-09 19:47:00,59.0,34.0,30.30,West,270,1.1,1.6,39,0.00,,,0.00,WUHU216HW,2013-03-10 03:47:00,
2013-03-09 19:52:00,58.9,33.8,30.29,NW,315,0.9,1.6,39,0.00,,,0.00,WUHU216HW,2013-03-10 03:52:00,
2013-03-09 19:57:00,58.7,33.8,30.30,NW,315,0.0,1.8,39,0.00,,,0.00,WUHU216HW,2013-03-10 03:57:00,
2013-03-09 20:02:00,58.3,33.4,30.30,NW,315,0.0,1.8,39,0.00,,,0.00,WUHU216HW,2013-03-10 04:02:00,
2013-03-09 20:07:00,58.1,33.9,30.30,NW,315,0.0,1.3,40,0.00,,,0.00,WUHU216HW,2013-03-10 04:07:00,
2013-03-09 20:12:00,57.8,33.6,30.30,NW,315,0.4,1.3,40,0.00,,,0.00,WUHU216HW,2013-03-10 04:12:00,
2013-03-09 20:17:00,57.6,33.5,30.30,NW,315,0.0,1.1,40,0.00,,,0.00,WUHU216HW,2013-03-10 04:17:00,
2013-03-09 20:22:00,57.2,33.7,30.29,WNW,293,0.7,1.1,41,0.00,,,0.00,WUHU216HW,2013-03-10 04:22:00,
2013-03-09 20:27:00,57.2,33.7,30.30,NNW,338,0.2,0.7,41,0.00,,,0.00,WUHU216HW,2013-03-10 04:27:00,
2013-03-09 20:33:00,56.9,33.4,30.30,NW,315,0.4,0.9,41,0.00,,,0.00,WUHU216HW,2013-03-10 04:33:00,
2013-03-09 20:38:00,56.7,33.2,30.30,NNW,338,0.4,0.9,41,0.00,,,0.00,WUHU216HW,2013-03-10 04:38:00,
2013-03-09 20:43:00,56.5,33.6,30.30,NNW,338,0.7,0.9,42,0.00,,,0.00,WUHU216HW,2013-03-10 04:43:00,
2013-03-09 20:48:00,56.5,33.6,30.30,WNW,293,0.2,0.9,42,0.00,,,0.00,WUHU216HW,2013-03-10 04:48:00,
2013-03-09 20:53:00,56.3,34.0,30.30,NW,315,0.0,1.1,43,0.00,,,0.00,WUHU216HW,2013-03-10 04:53:00,
2013-03-09 20:58:00,56.2,33.8,30.30,NW,315,0.4,1.1,43,0.00,,,0.00,WUHU216HW,2013-03-10 04:58:00,
2013-03-09 21:00:00,56.2,33.8,30.30,NW,315,0.2,1.1,43,0.00,,,0.00,WUHU216HW,2013-03-10 05:00:00,
2013-03-09 21:01:00,56.2,33.8,30.30,NW,315,0.2,0.4,43,0.00,,,0.00,WUHU216HW,2013-03-10 05:01:00,
2013-03-09 21:06:00,56.0,33.7,30.30,NNW,338,0.0,0.4,43,0.00,,,0.00,WUHU216HW,2013-03-10 05:06:00,
2013-03-09 21:11:00,55.8,33.5,30.30,NNW,338,0.0,0.4,43,0.00,,,0.00,WUHU216HW,2013-03-10 05:11:00,
2013-03-09 21:16:00,55.6,33.3,30.30,NNW,338,0.0,0.0,43,0.00,,,0.00,WUHU216HW,2013-03-10 05:16:00,
2013-03-09 21:21:00,55.3,33.6,30.31,NNW,338,0.2,0.2,44,0.00,,,0.00,WUHU216HW,2013-03-10 05:21:00,
2013-03-09 21:26:00,55.1,33.4,30.31,North,0,0.4,0.4,44,0.00,,,0.00,WUHU216HW,2013-03-10 05:26:00,
2013-03-09 21:31:00,54.9,33.2,30.31,NNW,338,0.0,0.4,44,0.00,,,0.00,WUHU216HW,2013-03-10 05:31:00,
2013-03-09 21:36:00,54.7,33.7,30.31,NW,315,0.9,0.9,45,0.00,,,0.00,WUHU216HW,2013-03-10 05:36:00,
2013-03-09 21:42:00,54.7,33.7,30.31,NW,315,1.1,1.1,45,0.00,,,0.00,WUHU216HW,2013-03-10 05:42:00,
2013-03-09 21:47:00,54.5,33.5,30.31,North,0,0.4,1.1,45,0.00,,,0.00,WUHU216HW,2013-03-10 05:47:00,
2013-03-09 21:52:00,54.4,33.3,30.31,NW,315,0.0,0.9,45,0.00,,,0.00,WUHU216HW,2013-03-10 05:52:00,
2013-03-09 21:57:00,54.2,33.1,30.31,NNW,338,0.0,0.4,45,0.00,,,0.00,WUHU216HW,2013-03-10 05:57:00,
2013-03-09 22:02:00,54.0,33.6,30.31,NNW,338,0.0,0.4,46,0.00,,,0.00,WUHU216HW,2013-03-10 06:02:00,
2013-03-09 22:07:00,53.6,33.2,30.31,NNW,338,0.0,0.0,46,0.00,,,0.00,WUHU216HW,2013-03-10 06:07:00,
2013-03-09 22:12:00,53.6,33.2,30.31,NNW,338,0.0,0.0,46,0.00,,,0.00,WUHU216HW,2013-03-10 06:12:00,
2013-03-09 22:17:00,53.3,33.0,30.31,NNW,338,0.2,0.2,46,0.00,,,0.00,WUHU216HW,2013-03-10 06:17:00,
2013-03-09 22:22:00,53.1,32.8,30.31,NNW,338,0.0,0.2,46,0.00,,,0.00,WUHU216HW,2013-03-10 06:22:00,
2013-03-09 22:27:00,52.9,33.1,30.31,NNW,338,0.4,0.4,47,0.00,,,0.00,WUHU216HW,2013-03-10 06:27:00,
2013-03-09 22:32:00,52.9,33.1,30.31,WNW,293,0.9,1.1,47,0.00,,,0.00,WUHU216HW,2013-03-10 06:32:00,
2013-03-09 22:37:00,52.7,32.9,30.32,WNW,293,1.1,1.1,47,0.00,,,0.00,WUHU216HW,2013-03-10 06:37:00,
2013-03-09 22:42:00,52.9,33.1,30.32,NNW,338,0.4,1.8,47,0.00,,,0.00,WUHU216HW,2013-03-10 06:42:00,
2013-03-09 22:47:00,53.1,33.3,30.32,NW,315,1.8,3.4,47,0.00,,,0.00,WUHU216HW,2013-03-10 06:47:00,
2013-03-09 22:52:00,53.5,33.7,30.31,NNW,338,0.4,3.4,47,0.00,,,0.00,WUHU216HW,2013-03-10 06:52:00,
2013-03-09 22:58:00,53.6,33.8,30.32,NW,315,0.9,2.5,47,0.00,,,0.00,WUHU216HW,2013-03-10 06:58:00,
2013-03-09 23:03:00,53.6,33.2,30.31,NW,315,1.8,1.8,46,0.00,,,0.00,WUHU216HW,2013-03-10 07:03:00,
2013-03-09 23:08:00,53.5,33.7,30.31,NNE,23,0.4,1.8,47,0.00,,,0.00,WUHU216HW,2013-03-10 07:08:00,
2013-03-09 23:13:00,53.5,33.7,30.32,WNW,293,1.1,1.8,47,0.00,,,0.00,WUHU216HW,2013-03-10 07:13:00,
2013-03-09 23:18:00,53.5,33.0,30.31,NNE,23,0.4,1.8,46,0.00,,,0.00,WUHU216HW,2013-03-10 07:18:00,
2013-03-09 23:23:00,53.3,33.0,30.31,NNW,338,0.4,1.3,46,0.00,,,0.00,WUHU216HW,2013-03-10 07:23:00,
2013-03-09 23:28:00,53.1,33.3,30.31,NNW,338,0.0,1.3,47,0.00,,,0.00,WUHU216HW,2013-03-10 07:28:00,
2013-03-09 23:33:00,52.9,33.1,30.31,NNW,338,0.2,1.3,47,0.00,,,0.00,WUHU216HW,2013-03-10 07:33:00,
2013-03-09 23:38:00,52.7,32.9,30.31,ESE,113,1.1,1.1,47,0.00,,,0.00,WUHU216HW,2013-03-10 07:38:00,
2013-03-09 23:43:00,52.7,32.9,30.31,NE,45,0.0,1.1,47,0.00,,,0.00,WUHU216HW,2013-03-10 07:43:00,
2013-03-09 23:48:00,52.6,32.9,30.31,NE,45,0.0,0.0,47,0.00,,,0.00,WUHU216HW,2013-03-10 07:48:00,
2013-03-09 23:53:00,52.2,33.0,30.31,NE,45,0.0,0.0,48,0.00,,,0.00,WUHU216HW,2013-03-10 07:53:00,
2013-03-09 23:59:00,51.7,33.1,30.31,NNW,338,0.0,0.9,49,0.00,,,0.00,WUHU216HW,2013-03-10 07:59:00,